Aviation Digital Data Service (ADDS)

Output produced by METARs form (0329 UTC 14 December 2018)
found at http://aviationweather.gov/metar/data/
 
KSAV 140253Z 07004KT 2SM -RA BR FEW008 BKN015 OVC033 12/12 A3018 RMK AO2 RAE00B31 SLP217 P0003 60005 T01220117 58004
KSAV 140258Z 1403/1424 06006KT 6SM -RA SCT008 BKN030 
     FM140500 07006KT 4SM -RA SCT007 OVC018 
     FM140900 11005KT 3SM SHRA SCT005 OVC015 
     FM141400 15010G16KT 3SM SHRA SCT006 OVC012
       
KSVN 140256Z 06005KT 4SM -RA BKN004 13/11 A3014 RMK AO2A VIS 2 3/4 RWY28 DZE00DZB06E18DZB21E28RAB28 SLP209 P0009 60012 T01290106 58006 FZRANO $
TAF AMD KSVN 140235Z 1402/1503 VRB06KT 9999 BKN006 QNH3010INS 
     BECMG 1403/1404 06006KT 8000 -RA BKN006 QNH2990INS 
     BECMG 1409/1410 08006KT 8000 -RA SCT007 BKN012 OVC020 WS015/14035KT 
     BECMG 1414/1415 16012KT 8000 -SHRA OVC003 QNH2987INS TX19/1420Z TN08/1400Z
       
KLHW 140256Z 06006KT 10SM BKN004 OVC011 13/13 A3012 RMK AO2A RAE38 SLP203 P0014 60024 T01340134 58013 $
KTBR 140315Z AUTO 09005KT 4SM DZ SCT006 BKN032 OVC041 12/11 A3017 RMK AO2 T01150112
KVDI 140315Z AUTO 09007KT 10SM SCT009 BKN029 BKN120 14/11 A3014 RMK AO2
KJYL 140315Z AUTO 09003KT 5SM -DZ SCT019 BKN024 OVC036 12/12 A3020 RMK AO2 T01170115
KDBN 140315Z AUTO 05005KT 10SM SCT015 SCT050 BKN110 11/08 A3015 RMK AO2
KJES 140316Z AUTO 00000KT 10SM OVC003 16/14 A3012 RMK AO2
KSSI 140325Z AUTO 07005KT 3/4SM BR VV002 17/16 A3011 RMK AO2 T01670161
KSSI 140312Z 1403/1424 05007KT 2SM BR BKN004 OVC020 
     FM140600 11008KT 4SM -SHRA BR BKN010 OVC030 WS010/16035KT 
     FM141000 13012KT 4SM RA BKN015 OVC030 
     FM141800 17008KT 4SM RA VCTS BKN010CB OVC030
       
KBQK 140315Z AUTO 05005KT 1/2SM FG OVC002 15/14 A3013 RMK AO2
KAYS 140315Z AUTO 10005KT 10SM BKN008 16/14 A3010 RMK AO2 T01550138
KNBC 140256Z 25004KT 10SM -RA BKN040 BKN048 OVC055 12/12 A3020 RMK AO2 SLP225 P0002 60002 T01220117 58006
TAF KNBC 1403/1503 VRB06KT 8000 -SHRA BKN030 OVC050 522409 523306 QNH3014INS 
     BECMG 1406/1408 15012KT 4800 SHRA BKN010 OVC030 522409 523306 651109 652005
QNH2994INS T12/1409Z T19/1418Z
       
KHXD 140315Z AUTO 01003KT 10SM FEW034 SCT040 BKN048 13/12 A3019 RMK AO2